createdAt,value
2023-02-22T00:01:35.445Z,47.17
2023-02-22T00:04:04.056Z,47.54
2023-02-22T00:06:31.255Z,47.79
2023-02-22T00:08:58.609Z,47.44
2023-02-22T00:11:26.462Z,46.68
2023-02-22T00:13:57.122Z,45.90
2023-02-22T00:16:24.897Z,45.79
2023-02-22T00:18:52.457Z,46.03
2023-02-22T00:21:19.672Z,46.62
2023-02-22T00:23:47.206Z,46.63
2023-02-22T00:26:18.274Z,47.25
2023-02-22T00:28:47.106Z,46.96
2023-02-22T00:31:15.047Z,47.44
2023-02-22T00:33:42.906Z,47.66
2023-02-22T00:36:11.127Z,48.13
2023-02-22T00:38:38.911Z,48.32
2023-02-22T00:41:06.150Z,48.90
2023-02-22T00:43:33.495Z,47.79
2023-02-22T00:46:01.035Z,47.65
2023-02-22T00:48:28.491Z,47.00
2023-02-22T00:50:55.688Z,46.70
2023-02-22T00:53:23.897Z,46.82
2023-02-22T00:55:51.096Z,46.62
2023-02-22T00:58:18.724Z,47.05
2023-02-22T01:00:46.265Z,46.81
2023-02-22T01:03:15.148Z,46.38
2023-02-22T01:05:42.460Z,46.31
2023-02-22T01:08:10.841Z,46.19
2023-02-22T01:10:38.358Z,46.21
2023-02-22T01:13:09.181Z,46.47
2023-02-22T01:15:37.543Z,46.53
2023-02-22T01:18:05.286Z,46.70
2023-02-22T01:20:32.661Z,46.45
2023-02-22T01:23:01.026Z,46.23
2023-02-22T01:25:29.988Z,46.06
2023-02-22T01:27:57.605Z,46.24
2023-02-22T01:30:26.493Z,46.23
2023-02-22T01:32:53.812Z,46.64
2023-02-22T01:35:27.697Z,46.86
2023-02-22T01:37:55.471Z,46.84
2023-02-22T01:40:23.873Z,46.50
2023-02-22T01:42:51.705Z,46.43
2023-02-22T01:45:32.832Z,46.75
2023-02-22T01:48:03.340Z,46.53
2023-02-22T01:50:32.140Z,46.61
2023-02-22T01:52:59.291Z,47.03
2023-02-22T01:55:26.911Z,47.09
2023-02-22T01:57:54.383Z,47.14
2023-02-22T02:00:22.291Z,47.20
2023-02-22T02:02:54.558Z,47.31
2023-02-22T02:05:24.768Z,47.00
2023-02-22T02:07:52.853Z,46.91
2023-02-22T02:10:21.489Z,46.73
2023-02-22T02:12:49.595Z,46.96
2023-02-22T02:15:20.131Z,47.19
2023-02-22T02:17:47.740Z,46.98
2023-02-22T02:20:17.940Z,47.31
2023-02-22T02:22:54.611Z,47.08
2023-02-22T02:25:40.593Z,47.24
2023-02-22T02:28:07.990Z,47.17
2023-02-22T02:30:41.269Z,47.04
2023-02-22T02:33:24.974Z,47.14
2023-02-22T02:36:03.340Z,47.03
2023-02-22T02:38:32.658Z,47.06
2023-02-22T02:41:05.556Z,47.12
2023-02-22T02:43:53.270Z,47.18
2023-02-22T02:46:36.920Z,47.47
2023-02-22T02:49:12.104Z,47.00
2023-02-22T02:51:40.358Z,46.91
2023-02-22T02:54:07.837Z,47.49
2023-02-22T02:56:34.964Z,47.09
2023-02-22T02:59:02.112Z,47.00
2023-02-22T03:01:29.595Z,46.82
2023-02-22T03:04:23.275Z,46.94
2023-02-22T03:07:20.155Z,47.79
2023-02-22T03:10:02.426Z,47.13
2023-02-22T03:12:32.652Z,46.89
2023-02-22T03:15:14.744Z,47.36
2023-02-22T03:17:51.347Z,47.64
2023-02-22T03:20:31.973Z,47.58
2023-02-22T03:23:15.175Z,47.95
2023-02-22T03:25:48.878Z,47.42
2023-02-22T03:28:17.218Z,46.54
2023-02-22T03:30:51.931Z,46.89
2023-02-22T03:33:28.851Z,46.77
2023-02-22T03:35:59.914Z,47.00
2023-02-22T03:38:28.024Z,46.76
2023-02-22T03:40:55.630Z,47.02
2023-02-22T03:43:25.006Z,47.02
2023-02-22T03:45:53.210Z,47.08
2023-02-22T03:48:20.756Z,46.62
2023-02-22T03:50:48.180Z,46.78
2023-02-22T03:53:16.871Z,46.48
2023-02-22T03:55:44.234Z,46.76
2023-02-22T03:58:11.919Z,46.85
2023-02-22T04:00:39.386Z,46.68
2023-02-22T04:03:07.083Z,46.58
2023-02-22T04:05:34.304Z,46.65
2023-02-22T04:08:02.116Z,46.88
2023-02-22T04:10:31.735Z,46.69
2023-02-22T04:13:00.085Z,46.88
2023-02-22T04:15:27.355Z,46.78
2023-02-22T04:17:55.510Z,47.01
2023-02-22T04:20:25.574Z,47.23
2023-02-22T04:22:53.558Z,47.02
2023-02-22T04:25:21.649Z,46.85
2023-02-22T04:27:48.860Z,46.67
2023-02-22T04:30:17.705Z,46.70
2023-02-22T04:32:45.172Z,46.66
2023-02-22T04:35:12.585Z,46.89
2023-02-22T04:37:39.831Z,47.02
2023-02-22T04:40:08.052Z,46.47
2023-02-22T04:42:36.020Z,46.21
2023-02-22T04:45:03.811Z,46.45
2023-02-22T04:47:31.276Z,46.74
2023-02-22T04:50:00.432Z,46.60
2023-02-22T04:52:27.838Z,46.73
2023-02-22T04:54:55.294Z,46.81
2023-02-22T04:57:22.436Z,46.87
2023-02-22T04:59:51.186Z,46.87
2023-02-22T05:02:19.405Z,47.08
2023-02-22T05:04:46.722Z,47.05
2023-02-22T05:07:13.980Z,46.90
2023-02-22T05:09:41.444Z,47.49
2023-02-22T05:12:08.615Z,47.07
2023-02-22T05:14:35.841Z,46.95
2023-02-22T05:17:03.779Z,47.05
2023-02-22T05:19:30.974Z,46.76
2023-02-22T05:21:58.175Z,46.83
2023-02-22T05:24:25.596Z,46.81
2023-02-22T05:26:53.295Z,46.96
2023-02-22T05:29:21.115Z,46.80
2023-02-22T05:31:48.789Z,46.72
2023-02-22T05:34:15.987Z,47.37
2023-02-22T05:36:43.198Z,47.09
2023-02-22T05:39:10.612Z,46.91
2023-02-22T05:41:37.756Z,47.05
2023-02-22T05:44:04.999Z,47.53
2023-02-22T05:46:32.522Z,47.29
2023-02-22T05:48:59.779Z,47.06
2023-02-22T05:51:27.020Z,47.34
2023-02-22T05:53:54.426Z,47.16
2023-02-22T05:56:26.004Z,47.07
2023-02-22T05:58:53.346Z,47.18
2023-02-22T06:01:21.219Z,47.69
2023-02-22T06:03:49.429Z,47.59
2023-02-22T06:06:16.782Z,47.63
2023-02-22T06:08:44.066Z,47.66
2023-02-22T06:11:11.585Z,48.26
2023-02-22T06:13:39.014Z,48.05
2023-02-22T06:16:06.669Z,47.72
2023-02-22T06:18:34.138Z,48.55
2023-02-22T06:21:01.348Z,47.76
2023-02-22T06:23:28.478Z,47.96
2023-02-22T06:25:55.920Z,47.53
2023-02-22T06:28:23.771Z,47.42
2023-02-22T06:30:50.953Z,47.34
2023-02-22T06:33:18.382Z,47.22
2023-02-22T06:35:45.603Z,47.22
2023-02-22T06:38:12.907Z,47.45
2023-02-22T06:40:40.326Z,47.54
2023-02-22T06:43:07.668Z,47.42
2023-02-22T06:45:34.827Z,47.25
2023-02-22T06:48:02.289Z,47.37
2023-02-22T06:50:30.010Z,47.11
2023-02-22T06:52:57.377Z,48.04
2023-02-22T06:55:25.982Z,47.50
2023-02-22T06:57:53.376Z,47.96
2023-02-22T07:00:21.328Z,47.45
2023-02-22T07:02:48.893Z,47.54
2023-02-22T07:05:17.198Z,47.98
2023-02-22T07:07:44.458Z,47.49
2023-02-22T07:10:17.997Z,47.29
2023-02-22T07:12:45.213Z,47.33
2023-02-22T07:15:13.734Z,47.41
2023-02-22T07:17:41.309Z,47.08
2023-02-22T07:20:09.069Z,47.57
2023-02-22T07:22:36.544Z,47.39
2023-02-22T07:25:03.743Z,46.96
2023-02-22T07:27:30.967Z,46.56
2023-02-22T07:29:58.762Z,46.29
2023-02-22T07:32:26.002Z,45.95
2023-02-22T07:34:53.260Z,45.88
2023-02-22T07:37:21.312Z,45.47
2023-02-22T07:39:48.496Z,45.56
2023-02-22T07:42:15.739Z,46.28
2023-02-22T07:44:43.895Z,46.24
2023-02-22T07:47:13.028Z,44.72
2023-02-22T07:49:40.182Z,43.95
2023-02-22T07:52:07.810Z,43.04
2023-02-22T07:54:34.985Z,37.82
2023-02-22T07:57:03.494Z,33.60
2023-02-22T07:59:30.913Z,32.20
2023-02-22T08:01:58.107Z,31.03
2023-02-22T08:04:25.634Z,31.26
2023-02-22T08:06:52.794Z,31.36
2023-02-22T08:09:19.945Z,30.21
2023-02-22T08:11:47.436Z,30.53
2023-02-22T08:14:15.817Z,29.47
2023-02-22T08:16:42.970Z,28.88
2023-02-22T08:19:10.508Z,30.71
2023-02-22T08:21:37.658Z,30.89
2023-02-22T08:24:04.995Z,32.20
2023-02-22T08:26:32.441Z,32.77
2023-02-22T08:28:59.583Z,33.83
2023-02-22T08:31:26.866Z,35.15
2023-02-22T08:33:54.390Z,35.17
2023-02-22T08:36:21.691Z,35.33
2023-02-22T08:38:49.811Z,36.50
2023-02-22T08:41:17.629Z,36.85
2023-02-22T08:43:45.164Z,37.90
2023-02-22T08:46:12.503Z,37.62
2023-02-22T08:48:45.559Z,38.34
2023-02-22T08:51:12.778Z,39.27
2023-02-22T08:53:40.186Z,39.06
2023-02-22T08:56:07.386Z,40.87
2023-02-22T08:58:35.185Z,40.49
2023-02-22T09:01:02.622Z,41.61
2023-02-22T09:03:29.814Z,40.31
2023-02-22T09:05:57.003Z,40.24
2023-02-22T09:08:24.442Z,40.54
2023-02-22T09:10:51.837Z,40.78
2023-02-22T09:13:19.014Z,40.86
2023-02-22T09:15:46.458Z,41.88
2023-02-22T09:18:14.745Z,41.25
2023-02-22T09:20:42.029Z,42.40
2023-02-22T09:23:09.858Z,41.94
2023-02-22T09:25:38.805Z,41.14
2023-02-22T09:28:06.041Z,41.87
2023-02-22T09:30:34.472Z,41.89
2023-02-22T09:33:12.177Z,41.75
2023-02-22T09:35:42.810Z,42.64
2023-02-22T09:38:10.496Z,42.99
2023-02-22T09:40:44.907Z,42.16
2023-02-22T09:43:21.430Z,42.10
2023-02-22T09:45:54.704Z,42.67
2023-02-22T09:48:22.744Z,42.10
2023-02-22T09:50:50.082Z,42.47
2023-02-22T09:53:32.033Z,42.37
2023-02-22T09:56:04.013Z,41.85
2023-02-22T09:58:34.592Z,42.19
2023-02-22T10:01:10.603Z,42.89
2023-02-22T10:03:42.488Z,42.54
2023-02-22T10:06:10.727Z,42.40
2023-02-22T10:08:38.776Z,42.65
2023-02-22T10:11:10.343Z,43.69
2023-02-22T10:13:43.652Z,42.51
2023-02-22T10:16:26.161Z,42.45
2023-02-22T10:18:57.130Z,44.07
2023-02-22T10:21:43.259Z,44.01
2023-02-22T10:24:20.187Z,43.47
2023-02-22T10:26:47.431Z,43.57
2023-02-22T10:29:32.654Z,43.55
2023-02-22T10:32:01.608Z,43.00
2023-02-22T10:34:40.241Z,43.92
2023-02-22T10:37:30.718Z,44.22
2023-02-22T10:40:17.824Z,43.87
2023-02-22T10:42:45.140Z,43.27
2023-02-22T10:45:22.476Z,43.11
2023-02-22T10:47:50.006Z,42.62
2023-02-22T10:50:17.603Z,42.55
2023-02-22T10:52:44.815Z,42.87
2023-02-22T10:55:16.146Z,42.60
2023-02-22T10:57:47.239Z,42.24
2023-02-22T11:00:26.360Z,43.13
2023-02-22T11:03:04.221Z,42.45
2023-02-22T11:05:38.475Z,43.35
2023-02-22T11:08:20.994Z,43.96
2023-02-22T11:10:52.562Z,43.71
2023-02-22T11:13:27.352Z,43.85
2023-02-22T11:15:55.673Z,43.26
2023-02-22T11:18:41.307Z,44.45
2023-02-22T11:21:10.360Z,43.85
2023-02-22T11:23:38.595Z,44.02
2023-02-22T11:26:10.523Z,43.50
2023-02-22T11:28:38.017Z,43.09
2023-02-22T11:31:13.033Z,42.79
2023-02-22T11:33:40.539Z,43.28
2023-02-22T11:36:09.420Z,42.17
2023-02-22T11:38:37.503Z,41.36
2023-02-22T11:41:04.972Z,41.97
2023-02-22T11:43:32.217Z,40.84
2023-02-22T11:46:03.975Z,40.40
2023-02-22T11:48:32.537Z,40.66
2023-02-22T11:51:00.263Z,44.76
2023-02-22T11:53:45.985Z,44.15
2023-02-22T11:56:28.356Z,43.49
2023-02-22T11:59:04.677Z,42.97
2023-02-22T12:02:00.036Z,43.30
2023-02-22T12:05:02.890Z,42.97
2023-02-22T12:07:39.410Z,42.77
2023-02-22T12:10:29.240Z,42.38
2023-02-22T12:12:56.368Z,43.86
2023-02-22T12:15:28.957Z,43.39
2023-02-22T12:18:02.187Z,43.60
2023-02-22T12:20:30.984Z,43.75
2023-02-22T12:23:01.420Z,42.92
2023-02-22T12:25:31.955Z,42.17
2023-02-22T12:28:00.619Z,41.37
2023-02-22T12:30:29.905Z,41.94
2023-02-22T12:32:59.695Z,41.54
2023-02-22T12:35:28.438Z,41.58
2023-02-22T12:38:01.877Z,41.04
2023-02-22T12:40:57.177Z,39.99
2023-02-22T12:43:29.042Z,40.46
2023-02-22T12:45:59.529Z,40.64
2023-02-22T12:48:46.372Z,39.58
2023-02-22T12:51:19.685Z,38.80
2023-02-22T12:53:52.618Z,38.40
2023-02-22T12:56:29.559Z,38.71
2023-02-22T12:59:02.955Z,38.41
2023-02-22T13:01:33.995Z,38.83
2023-02-22T13:04:19.438Z,39.13
2023-02-22T13:06:56.821Z,38.65
2023-02-22T13:09:26.602Z,37.32
2023-02-22T13:11:57.540Z,36.58
2023-02-22T13:14:43.804Z,35.79
2023-02-22T13:17:21.162Z,36.98
2023-02-22T13:19:57.803Z,36.46
2023-02-22T13:22:41.293Z,36.81
2023-02-22T13:25:09.209Z,36.52
2023-02-22T13:27:38.557Z,37.96
2023-02-22T13:30:06.198Z,37.16
2023-02-22T13:32:52.171Z,37.69
2023-02-22T13:35:21.438Z,37.82
2023-02-22T13:38:07.563Z,38.21
2023-02-22T13:40:35.039Z,37.78
2023-02-22T13:43:31.393Z,39.09
2023-02-22T13:46:25.224Z,38.65
2023-02-22T13:49:11.305Z,38.01
2023-02-22T13:51:48.869Z,39.49
2023-02-22T13:54:18.227Z,38.82
2023-02-22T13:56:46.135Z,38.36
2023-02-22T13:59:40.099Z,38.75
2023-02-22T14:02:08.062Z,38.56
2023-02-22T14:04:38.195Z,37.96
2023-02-22T14:07:26.562Z,38.03
2023-02-22T14:09:56.144Z,38.49
2023-02-22T14:12:29.900Z,38.20
2023-02-22T14:15:18.744Z,38.13
2023-02-22T14:17:55.061Z,37.92
2023-02-22T14:20:30.180Z,38.61
2023-02-22T14:22:57.869Z,38.48
2023-02-22T14:25:36.816Z,37.93
2023-02-22T14:28:06.239Z,38.14
2023-02-22T14:30:34.840Z,37.47
2023-02-22T14:33:02.297Z,37.40
2023-02-22T14:35:49.135Z,37.11
2023-02-22T14:38:21.092Z,38.01
2023-02-22T14:40:48.587Z,37.54
2023-02-22T14:43:19.932Z,37.34
2023-02-22T14:45:54.122Z,37.11
2023-02-22T14:48:21.321Z,37.07
2023-02-22T14:50:51.171Z,37.05
2023-02-22T14:53:21.785Z,36.94
2023-02-22T14:55:58.020Z,36.98
2023-02-22T14:58:46.107Z,37.44
2023-02-22T15:01:20.230Z,36.82
2023-02-22T15:03:51.402Z,36.84
2023-02-22T15:06:25.845Z,36.78
2023-02-22T15:09:04.976Z,36.62
2023-02-22T15:11:32.525Z,36.60
2023-02-22T15:14:00.549Z,36.63
2023-02-22T15:16:32.150Z,36.48
2023-02-22T15:19:00.885Z,36.49
2023-02-22T15:21:28.409Z,37.01
2023-02-22T15:24:01.101Z,37.31
2023-02-22T15:26:35.344Z,37.47
2023-02-22T15:29:02.963Z,37.03
2023-02-22T15:31:30.747Z,36.93
2023-02-22T15:33:58.100Z,36.71
2023-02-22T15:36:26.672Z,36.58
2023-02-22T15:38:55.865Z,36.69
2023-02-22T15:41:27.923Z,36.91
2023-02-22T15:44:17.664Z,36.53
2023-02-22T15:46:48.647Z,36.47
2023-02-22T15:49:15.994Z,36.64
2023-02-22T15:51:46.410Z,36.78
2023-02-22T15:54:26.566Z,36.90
2023-02-22T15:56:57.709Z,36.55
2023-02-22T15:59:30.313Z,36.73
2023-02-22T16:01:57.864Z,36.65
2023-02-22T16:04:27.210Z,36.72
2023-02-22T16:07:01.959Z,36.80
2023-02-22T16:09:30.447Z,37.01
2023-02-22T16:12:20.857Z,37.29
2023-02-22T16:14:52.468Z,37.33
2023-02-22T16:17:31.453Z,37.19
2023-02-22T16:19:59.809Z,37.11
2023-02-22T16:22:34.018Z,37.19
2023-02-22T16:25:35.766Z,37.14
2023-02-22T16:28:06.322Z,37.38
2023-02-22T16:30:37.863Z,37.40
2023-02-22T16:33:09.270Z,37.31
2023-02-22T16:35:37.961Z,37.40
2023-02-22T16:38:16.833Z,37.92
2023-02-22T16:40:50.573Z,37.76
2023-02-22T16:43:25.124Z,38.02
2023-02-22T16:45:55.393Z,37.75
2023-02-22T16:48:23.788Z,37.79
2023-02-22T16:50:51.725Z,38.00
2023-02-22T16:53:20.124Z,38.31
2023-02-22T16:55:47.552Z,38.32
2023-02-22T16:58:15.263Z,38.27
2023-02-22T17:00:42.852Z,38.31
2023-02-22T17:03:10.823Z,38.40
2023-02-22T17:05:38.233Z,38.52
2023-02-22T17:08:05.874Z,38.86
2023-02-22T17:10:33.430Z,39.06
2023-02-22T17:13:05.229Z,38.82
2023-02-22T17:15:40.565Z,39.02
2023-02-22T17:18:13.951Z,39.29
2023-02-22T17:20:41.398Z,39.47
2023-02-22T17:23:09.062Z,40.00
2023-02-22T17:25:43.618Z,39.97
2023-02-22T17:28:11.301Z,40.09
2023-02-22T17:30:38.608Z,40.19
2023-02-22T17:33:06.658Z,40.00
2023-02-22T17:35:36.860Z,40.16
2023-02-22T17:38:08.247Z,40.37
2023-02-22T17:40:36.754Z,40.15
2023-02-22T17:43:04.204Z,40.37
2023-02-22T17:45:31.459Z,40.31
2023-02-22T17:47:59.524Z,40.63
2023-02-22T17:50:26.932Z,40.65
2023-02-22T17:52:54.209Z,40.61
2023-02-22T17:55:21.866Z,40.90
2023-02-22T17:57:52.773Z,40.77
2023-02-22T18:00:33.040Z,40.65
2023-02-22T18:03:01.777Z,41.18
2023-02-22T18:05:29.315Z,41.32
2023-02-22T18:07:56.705Z,41.38
2023-02-22T18:10:26.351Z,41.54
2023-02-22T18:12:53.755Z,41.38
2023-02-22T18:15:28.219Z,41.81
2023-02-22T18:17:56.113Z,41.87
2023-02-22T18:20:38.072Z,41.75
2023-02-22T18:23:07.489Z,42.03
2023-02-22T18:25:36.443Z,41.94
2023-02-22T18:28:06.183Z,42.14
2023-02-22T18:30:35.923Z,42.04
2023-02-22T18:33:06.892Z,42.07
2023-02-22T18:35:34.531Z,42.13
2023-02-22T18:38:01.948Z,42.56
2023-02-22T18:40:29.296Z,42.77
2023-02-22T18:42:56.940Z,43.27
2023-02-22T18:45:26.273Z,43.44
2023-02-22T18:47:56.378Z,43.65
2023-02-22T18:50:23.791Z,44.09
2023-02-22T18:52:51.180Z,44.26
2023-02-22T18:55:19.029Z,44.40
2023-02-22T18:57:47.029Z,44.87
2023-02-22T19:00:15.943Z,46.57
2023-02-22T19:02:43.619Z,46.10
2023-02-22T19:05:17.413Z,45.58
2023-02-22T19:07:45.217Z,45.51
2023-02-22T19:10:12.843Z,47.20
2023-02-22T19:12:40.134Z,47.60
2023-02-22T19:15:08.097Z,46.76
2023-02-22T19:17:36.597Z,46.59
2023-02-22T19:20:08.794Z,46.42
2023-02-22T19:22:39.525Z,46.44
2023-02-22T19:25:08.003Z,46.64
2023-02-22T19:27:36.092Z,48.09
2023-02-22T19:30:04.665Z,49.89
2023-02-22T19:32:33.576Z,50.89
2023-02-22T19:35:06.844Z,50.61
2023-02-22T19:37:35.693Z,50.72
2023-02-22T19:40:06.927Z,49.42
2023-02-22T19:42:35.366Z,51.08
2023-02-22T19:45:03.020Z,50.83
2023-02-22T19:47:30.810Z,50.78
2023-02-22T19:49:59.829Z,49.57
2023-02-22T19:52:28.981Z,49.57
2023-02-22T19:54:56.680Z,50.20
2023-02-22T19:57:24.843Z,50.59
2023-02-22T19:59:52.408Z,49.69
2023-02-22T20:02:22.945Z,48.09
2023-02-22T20:04:51.341Z,47.48
2023-02-22T20:07:18.751Z,46.81
2023-02-22T20:09:46.129Z,47.04
2023-02-22T20:12:13.848Z,46.44
2023-02-22T20:14:41.113Z,47.54
2023-02-22T20:17:09.927Z,46.33
2023-02-22T20:19:38.772Z,45.87
2023-02-22T20:22:06.397Z,45.48
2023-02-22T20:24:33.761Z,45.34
2023-02-22T20:27:01.502Z,45.33
2023-02-22T20:29:31.773Z,45.82
2023-02-22T20:31:59.916Z,44.65
2023-02-22T20:34:31.316Z,45.43
2023-02-22T20:36:58.920Z,44.69
2023-02-22T20:39:26.139Z,44.44
2023-02-22T20:41:54.632Z,45.69
2023-02-22T20:44:22.023Z,44.83
2023-02-22T20:46:49.315Z,44.02
2023-02-22T20:49:18.774Z,45.86
2023-02-22T20:51:46.485Z,44.44
2023-02-22T20:54:13.917Z,43.73
2023-02-22T20:56:44.162Z,44.29
2023-02-22T20:59:12.768Z,43.89
2023-02-22T21:01:40.423Z,44.69
2023-02-22T21:04:10.023Z,44.00
2023-02-22T21:06:38.962Z,43.44
2023-02-22T21:09:09.564Z,43.61
2023-02-22T21:11:37.297Z,44.64
2023-02-22T21:14:04.670Z,43.38
2023-02-22T21:16:33.952Z,45.02
2023-02-22T21:19:02.461Z,45.78
2023-02-22T21:21:29.886Z,44.19
2023-02-22T21:23:57.835Z,42.90
2023-02-22T21:26:27.676Z,43.39
2023-02-22T21:28:55.566Z,42.50
2023-02-22T21:31:24.345Z,43.06
2023-02-22T21:33:53.201Z,44.67
2023-02-22T21:36:20.734Z,43.50
2023-02-22T21:38:53.290Z,42.91
2023-02-22T21:41:21.694Z,43.33
2023-02-22T21:43:49.296Z,43.09
2023-02-22T21:46:16.662Z,43.06
2023-02-22T21:48:45.265Z,42.82
2023-02-22T21:51:15.637Z,43.85
2023-02-22T21:53:45.824Z,43.16
2023-02-22T21:56:15.247Z,43.35
2023-02-22T21:58:43.502Z,43.54
2023-02-22T22:01:10.975Z,43.43
2023-02-22T22:03:38.508Z,43.00
2023-02-22T22:06:06.714Z,42.85
2023-02-22T22:08:35.242Z,43.61
2023-02-22T22:11:04.433Z,44.06
2023-02-22T22:13:32.676Z,43.88
2023-02-22T22:16:03.862Z,43.88
2023-02-22T22:18:31.319Z,44.40
2023-02-22T22:20:59.438Z,43.83
2023-02-22T22:23:26.613Z,44.45
2023-02-22T22:26:02.053Z,43.64
2023-02-22T22:28:31.529Z,43.27
2023-02-22T22:30:59.096Z,45.22
2023-02-22T22:33:26.576Z,43.47
2023-02-22T22:35:56.460Z,44.15
2023-02-22T22:38:26.396Z,44.19
2023-02-22T22:40:53.708Z,43.18
2023-02-22T22:43:20.876Z,43.69
2023-02-22T22:45:48.284Z,43.43
2023-02-22T22:48:15.444Z,45.16
2023-02-22T22:50:46.489Z,45.55
2023-02-22T22:53:13.912Z,44.49
2023-02-22T22:55:41.816Z,44.14
2023-02-22T22:58:10.255Z,44.45
2023-02-22T23:00:37.899Z,47.41
2023-02-22T23:03:05.685Z,47.17
2023-02-22T23:05:37.278Z,46.30
2023-02-22T23:08:05.049Z,46.48
2023-02-22T23:10:32.921Z,46.33
2023-02-22T23:13:00.096Z,44.99
2023-02-22T23:15:27.559Z,45.08
2023-02-22T23:17:59.268Z,44.28
2023-02-22T23:20:26.601Z,46.28
2023-02-22T23:22:55.212Z,45.71
2023-02-22T23:25:22.518Z,43.95
2023-02-22T23:27:49.811Z,43.64
2023-02-22T23:30:18.672Z,46.85
2023-02-22T23:32:46.676Z,46.57
2023-02-22T23:35:14.990Z,45.46
2023-02-22T23:37:42.553Z,46.18
2023-02-22T23:40:16.980Z,46.61
2023-02-22T23:42:48.983Z,46.56
2023-02-22T23:45:22.684Z,44.75
2023-02-22T23:47:50.519Z,45.37
2023-02-22T23:50:19.231Z,46.12
2023-02-22T23:52:46.413Z,43.99
2023-02-22T23:55:13.949Z,45.78
2023-02-22T23:57:43.194Z,47.10
